createdAt,value
2023-03-29T00:05:11.006Z,1009
2023-03-29T00:15:12.111Z,1009
2023-03-29T00:25:13.186Z,1009
2023-03-29T00:35:14.254Z,1009
2023-03-29T00:45:15.488Z,1009
2023-03-29T00:55:16.668Z,1009
2023-03-29T01:05:17.854Z,1009
2023-03-29T01:15:18.978Z,1009
2023-03-29T01:25:20.046Z,1009
2023-03-29T01:35:21.463Z,1009
2023-03-29T01:45:22.547Z,1009
2023-03-29T01:55:23.612Z,1009
2023-03-29T02:05:24.720Z,1009
2023-03-29T02:15:25.909Z,1009
2023-03-29T02:25:27.030Z,1009
2023-03-29T02:35:28.172Z,1009
2023-03-29T02:45:29.233Z,1009
2023-03-29T02:55:30.472Z,1009
2023-03-29T03:05:31.653Z,1009
2023-03-29T03:15:32.731Z,1009
2023-03-29T03:25:33.840Z,1010
2023-03-29T03:35:34.975Z,1010
2023-03-29T03:45:36.119Z,1007
2023-03-29T03:55:37.218Z,1005
2023-03-29T04:05:38.295Z,1003
2023-03-29T04:15:39.453Z,1008
2023-03-29T04:25:40.894Z,1009
2023-03-29T04:35:42.036Z,1009
2023-03-29T04:45:43.161Z,1009
2023-03-29T04:55:44.287Z,1009
2023-03-29T05:05:45.436Z,1009
2023-03-29T05:15:46.555Z,1009
2023-03-29T05:25:47.624Z,1009
2023-03-29T05:35:48.752Z,1010
2023-03-29T05:45:49.899Z,1010
2023-03-29T05:55:51.300Z,1010
2023-03-29T06:05:52.502Z,1010
2023-03-29T06:15:53.616Z,1010
2023-03-29T06:25:54.838Z,1010
2023-03-29T06:35:55.959Z,1010
2023-03-29T06:45:57.236Z,1010
2023-03-29T06:55:58.349Z,1010
2023-03-29T07:05:59.582Z,1010
2023-03-29T07:16:00.924Z,1010
2023-03-29T07:26:02.667Z,1010
2023-03-29T07:36:04.501Z,1010
2023-03-29T07:46:06.443Z,1010
2023-03-29T07:56:08.148Z,1010
2023-03-29T08:06:09.782Z,1010
2023-03-29T08:16:11.239Z,1010
2023-03-29T08:26:12.359Z,1010
2023-03-29T08:36:13.571Z,1010
2023-03-29T08:46:14.770Z,1010
2023-03-29T08:56:15.899Z,1009
2023-03-29T09:06:17.006Z,1009
2023-03-29T09:16:18.254Z,1009
2023-03-29T09:26:19.404Z,1009
2023-03-29T09:36:20.785Z,1009
2023-03-29T09:46:21.941Z,1008
2023-03-29T09:56:23.067Z,1008
2023-03-29T10:06:24.184Z,1008
2023-03-29T10:16:25.338Z,1007
2023-03-29T10:26:26.441Z,1007
2023-03-29T10:36:27.542Z,1007
2023-03-29T10:46:28.729Z,1007
2023-03-29T10:56:29.934Z,1007
2023-03-29T11:06:31.296Z,1007
2023-03-29T11:16:32.406Z,1007
2023-03-29T11:26:33.524Z,1006
2023-03-29T11:36:34.628Z,1006
2023-03-29T11:46:35.794Z,1006
2023-03-29T11:56:36.884Z,1006
2023-03-29T12:06:38.002Z,1006
2023-03-29T12:16:39.141Z,1006
2023-03-29T12:26:40.498Z,1005
2023-03-29T12:36:41.636Z,1005
2023-03-29T12:46:42.790Z,1005
2023-03-29T12:56:44.009Z,1005
2023-03-29T13:06:45.142Z,1005
2023-03-29T13:16:46.225Z,1005
2023-03-29T13:26:47.324Z,1005
2023-03-29T13:36:48.455Z,1005
2023-03-29T13:46:49.658Z,1005
2023-03-29T13:56:51.042Z,1005
2023-03-29T14:06:52.156Z,1005
2023-03-29T14:16:53.288Z,1005
2023-03-29T14:26:54.476Z,1004
2023-03-29T14:36:55.693Z,1004
2023-03-29T14:46:56.886Z,1004
2023-03-29T14:56:58.025Z,1004
2023-03-29T15:06:59.212Z,1004
2023-03-29T15:17:00.517Z,1004
2023-03-29T15:27:02.324Z,1004
2023-03-29T15:37:04.084Z,1003
2023-03-29T15:47:05.889Z,1003
2023-03-29T15:57:07.807Z,1003
2023-03-29T16:07:09.529Z,1002
2023-03-29T16:17:11.149Z,1002
2023-03-29T16:27:12.254Z,1002
2023-03-29T16:37:13.349Z,1002
2023-03-29T16:47:14.461Z,1002
2023-03-29T16:57:15.809Z,1001
2023-03-29T17:07:17.035Z,1001
2023-03-29T17:17:18.133Z,1001
2023-03-29T17:27:19.232Z,1001
2023-03-29T17:37:20.518Z,1001
2023-03-29T17:47:21.631Z,1000
2023-03-29T17:57:22.878Z,1000
2023-03-29T18:07:24.204Z,1000
2023-03-29T18:17:25.340Z,1000
2023-03-29T18:27:26.511Z,1000
2023-03-29T18:37:27.624Z,1000
2023-03-29T18:47:28.861Z,1000
2023-03-29T18:57:30.073Z,1000
2023-03-29T19:07:31.725Z,1000
2023-03-29T19:17:32.859Z,1000
2023-03-29T19:27:34.046Z,1000
2023-03-29T19:37:35.175Z,1000
2023-03-29T19:47:36.519Z,1000
2023-03-29T19:57:37.794Z,1000
2023-03-29T20:07:39.147Z,1000
2023-03-29T20:17:40.573Z,1000
2023-03-29T20:27:41.884Z,1000
2023-03-29T20:37:43.105Z,1000
2023-03-29T20:47:44.408Z,999
2023-03-29T20:57:45.524Z,999
2023-03-29T21:07:46.778Z,999
2023-03-29T21:17:47.957Z,999
2023-03-29T21:27:49.566Z,999
2023-03-29T21:37:50.988Z,999
2023-03-29T21:47:52.134Z,999
2023-03-29T21:57:54.231Z,999
2023-03-29T22:07:55.343Z,999
2023-03-29T22:17:58.616Z,999
2023-03-29T22:28:01.185Z,1000
2023-03-29T22:38:02.790Z,1000
2023-03-29T22:48:04.579Z,1000
2023-03-29T22:58:06.298Z,1000
2023-03-29T23:08:07.932Z,1000
2023-03-29T23:18:09.362Z,1000
2023-03-29T23:28:10.888Z,1000
2023-03-29T23:38:12.003Z,1000
2023-03-29T23:48:13.117Z,999
2023-03-29T23:58:14.204Z,999
